Terminal Aerodrome Forecast
Issued by NWS Topeka, KS

Home | Current Version | Previous Version | Graphics & Text | Print | Product List | Glossary On
Versions: 1 2 3 4 5 6 7 8 9 10 11 12 13 14 15 16 17
680
FTUS43 KTOP 161738
TAFTOP
TAF
KTOP 161738Z 1618/1718 20006KT P6SM FEW100
     FM162000 20007KT P6SM VCTS BKN030CB
     FM162100 19012KT 5SM TSRA SCT020 BKN030CB
     FM170100 19008KT P6SM SHRA VCTS OVC040CB
     FM170500 26007KT P6SM BKN150
     FM171500 30010G17KT P6SM SCT150=

USA.gov is the U.S. government's official web portal to all federal, state and local government web resources and services.